Time;durP1;ratioP1;P1;durP2;ratioP2;P2;SDS_P1;SDS_P2;PMS_P1;PMS_P2;Temp;Humidity;BMP_temperature;BMP_pressure;BME280_temperature;BME280_humidity;BME280_pressure;Samples;Min_cycle;Max_cycle;Signal;HPM_P1;HPM_P2
2021/04/25 00:01:02;;;;;;;16.48;7.68;;;;;;;1.09;73.74;99776.41;3480474;28;20080;-44
2021/04/25 00:02:43;;;;;;;15.13;7.15;;;;;;;1.08;73.88;99777.19;3482381;28;20151;-44
2021/04/25 00:04:25;;;;;;;15.85;7.53;;;;;;;1.09;73.69;99771.28;3481030;28;20045;-43
2021/04/25 00:06:06;;;;;;;15.30;6.82;;;;;;;1.09;73.95;99778.03;3480992;28;20052;-43
2021/04/25 00:07:48;;;;;;;13.25;5.90;;;;;;;1.08;73.73;99777.19;3483686;28;20076;-50
2021/04/25 00:09:30;;;;;;;14.95;6.05;;;;;;;1.10;73.76;99779.81;3480196;28;20049;-44
2021/04/25 00:11:11;;;;;;;9.73;5.63;;;;;;;1.11;73.71;99768.81;3483334;28;20127;-43
2021/04/25 00:12:53;;;;;;;10.57;5.55;;;;;;;1.11;73.87;99768.81;3480036;28;20049;-44
2021/04/25 00:14:35;;;;;;;12.50;5.95;;;;;;;1.13;73.59;99769.78;3481300;28;20049;-44
2021/04/25 00:16:16;;;;;;;12.02;6.35;;;;;;;1.12;73.69;99766.31;3480496;28;20422;-50
2021/04/25 00:17:58;;;;;;;11.73;5.45;;;;;;;1.14;73.46;99763.84;3480960;28;20431;-50
2021/04/25 00:19:39;;;;;;;12.50;5.53;;;;;;;1.14;73.25;99764.75;3470404;28;20049;-44
2021/04/25 00:21:21;;;;;;;11.25;5.50;;;;;;;1.15;73.22;99763.06;3474250;28;20092;-51
2021/04/25 00:23:03;;;;;;;11.30;5.47;;;;;;;1.15;73.20;99763.94;3482538;28;20056;-44
2021/04/25 00:24:44;;;;;;;10.85;4.90;;;;;;;1.16;73.30;99759.72;3478444;28;20486;-49
2021/04/25 00:26:26;;;;;;;9.38;5.30;;;;;;;1.15;73.29;99761.38;3483333;28;20182;-53
2021/04/25 00:28:07;;;;;;;14.00;5.78;;;;;;;1.19;73.19;99762.41;3480105;28;20434;-44
2021/04/25 00:29:49;;;;;;;10.73;5.28;;;;;;;1.20;73.03;99755.66;3480801;28;20080;-44
2021/04/25 00:31:33;;;;;;;9.73;5.32;;;;;;;1.19;72.97;99752.19;3481921;28;20052;-43
2021/04/25 00:33:15;;;;;;;15.20;5.40;;;;;;;1.20;73.04;99750.53;3479902;28;20132;-44
2021/04/25 00:34:56;;;;;;;11.40;5.80;;;;;;;1.16;73.36;99757.16;3483612;28;20056;-53
2021/04/25 00:36:37;;;;;;;11.48;5.40;;;;;;;1.16;73.11;99760.59;3479815;28;20049;-44
2021/04/25 00:38:19;;;;;;;9.52;4.88;;;;;;;1.15;73.13;99755.41;3482020;28;20060;-44
2021/04/25 00:40:00;;;;;;;10.73;5.53;;;;;;;1.14;73.02;99745.97;3480993;28;20473;-50
2021/04/25 00:41:41;;;;;;;10.35;5.10;;;;;;;1.10;73.11;99751.72;3480033;28;20060;-53
2021/04/25 00:43:23;;;;;;;11.75;5.03;;;;;;;1.09;73.54;99740.63;3481670;28;20056;-50
2021/04/25 00:45:07;;;;;;;9.85;4.90;;;;;;;1.07;73.22;99744.78;3478219;28;20049;-50
2021/04/25 00:46:48;;;;;;;12.02;4.68;;;;;;;1.07;73.59;99754.09;3483803;28;20053;-44
2021/04/25 00:48:30;;;;;;;8.68;4.55;;;;;;;1.07;73.30;99746.44;3478650;28;20049;-50
2021/04/25 00:50:14;;;;;;;6.57;4.13;;;;;;;1.07;73.34;99746.44;3481161;28;20052;-44
2021/04/25 00:51:55;;;;;;;10.63;4.95;;;;;;;1.07;73.26;99747.34;3480796;28;20084;-44
2021/04/25 00:53:37;;;;;;;9.15;4.65;;;;;;;1.08;73.75;99755.88;3479534;28;20513;-43
2021/04/25 00:55:19;;;;;;;11.20;4.90;;;;;;;1.11;73.20;99740.72;3481678;28;20486;-52
2021/04/25 00:57:01;;;;;;;10.68;4.50;;;;;;;1.13;72.84;99737.44;3480267;28;20041;-44
2021/04/25 00:58:43;;;;;;;12.75;5.55;;;;;;;1.16;73.25;99735.03;3484292;28;20560;-50
2021/04/25 01:00:26;;;;;;;10.70;5.30;;;;;;;1.17;72.97;99739.34;3478436;28;20048;-51
2021/04/25 01:02:14;;;;;;;10.90;5.32;;;;;;;1.18;72.93;99730.00;3480850;28;20045;-50
2021/04/25 01:03:56;;;;;;;13.85;5.75;;;;;;;1.15;73.10;99730.72;3481659;28;20510;-50
2021/04/25 01:05:37;;;;;;;10.25;5.68;;;;;;;1.13;73.02;99723.78;3479854;28;20045;-44
2021/04/25 01:07:18;;;;;;;10.57;5.43;;;;;;;1.11;73.40;99723.69;3482858;28;20126;-52
2021/04/25 01:09:00;;;;;;;13.63;5.82;;;;;;;1.09;73.05;99727.84;3478198;28;20041;-52
2021/04/25 01:10:41;;;;;;;13.93;7.38;;;;;;;1.07;73.42;99723.44;3482782;28;20106;-44
2021/04/25 01:12:23;;;;;;;16.95;6.53;;;;;;;1.05;73.64;99725.91;3477545;28;20506;-44
2021/04/25 01:14:04;;;;;;;15.50;7.35;;;;;;;1.02;73.67;99720.66;3478028;28;20465;-43
2021/04/25 01:15:46;;;;;;;14.48;6.55;;;;;;;0.99;73.85;99725.63;3481318;28;20057;-44
2021/04/25 01:17:28;;;;;;;12.32;6.97;;;;;;;0.96;73.93;99717.78;3479218;28;20084;-49
2021/04/25 01:19:09;;;;;;;14.88;6.30;;;;;;;0.98;73.90;99716.19;3482744;28;20049;-50
2021/04/25 01:20:58;;;;;;;11.65;6.40;;;;;;;0.98;74.09;99713.63;3479020;28;20045;-50
2021/04/25 01:22:40;;;;;;;12.80;6.13;;;;;;;1.00;73.86;99714.59;3482093;28;20052;-50
2021/04/25 01:24:21;;;;;;;11.32;4.70;;;;;;;1.02;73.80;99709.56;3479079;28;20079;-50
2021/04/25 01:26:03;;;;;;;10.73;5.13;;;;;;;1.06;73.90;99714.03;3480810;28;20049;-43
2021/04/25 01:27:44;;;;;;;13.32;5.60;;;;;;;1.06;73.77;99712.34;3481539;28;20107;-44
2021/04/25 01:29:26;;;;;;;11.80;5.93;;;;;;;1.10;73.64;99716.81;3479748;28;20056;-43
2021/04/25 01:31:07;;;;;;;13.70;6.20;;;;;;;1.16;73.64;99706.94;3482755;28;20049;-50
2021/04/25 01:32:50;;;;;;;12.18;6.32;;;;;;;1.21;73.40;99703.72;3479684;28;20076;-44
2021/04/25 01:34:32;;;;;;;10.75;6.03;;;;;;;1.21;73.33;99702.03;3482048;28;20147;-44
2021/04/25 01:36:14;;;;;;;10.75;4.80;;;;;;;1.21;73.28;99699.50;3481502;28;20131;-44
2021/04/25 01:37:57;;;;;;;11.35;5.68;;;;;;;1.23;73.25;99699.56;3482050;28;20077;-43
2021/04/25 01:39:39;;;;;;;12.27;5.78;;;;;;;1.23;72.91;99692.81;3485026;28;20056;-50
2021/04/25 01:41:20;;;;;;;9.32;5.30;;;;;;;1.23;73.08;99695.34;3481774;28;20139;-50
2021/04/25 01:43:02;;;;;;;10.30;5.95;;;;;;;1.23;73.20;99690.25;3485382;28;20064;-50
2021/04/25 01:44:43;;;;;;;10.40;5.28;;;;;;;1.22;72.95;99691.03;3481519;28;20049;-50
2021/04/25 01:46:25;;;;;;;11.07;5.00;;;;;;;1.22;73.03;99692.72;3484751;28;20052;-52
2021/04/25 01:48:08;;;;;;;15.32;6.38;;;;;;;1.22;73.08;99696.16;3482644;28;20057;-51
2021/04/25 01:49:49;;;;;;;10.47;6.00;;;;;;;1.21;73.19;99696.94;3483433;28;20080;-44
2021/04/25 01:51:31;;;;;;;10.55;4.80;;;;;;;1.19;73.09;99688.31;3472716;28;20348;-44
2021/04/25 01:53:13;;;;;;;14.57;7.15;;;;;;;1.16;73.24;99683.94;3475468;28;20055;-50
2021/04/25 01:54:54;;;;;;;13.30;7.25;;;;;;;1.14;73.27;99684.66;3485205;28;20087;-43
2021/04/25 01:56:35;;;;;;;13.68;6.88;;;;;;;1.14;73.42;99689.75;3481726;28;20057;-44
2021/04/25 01:58:17;;;;;;;14.60;6.63;;;;;;;1.12;73.13;99689.66;3484237;28;20084;-50
2021/04/25 01:59:59;;;;;;;14.77;7.75;;;;;;;1.11;73.54;99694.72;3481387;28;20044;-44
2021/04/25 02:01:41;;;;;;;16.33;7.30;;;;;;;1.10;73.63;99688.72;3480653;28;20053;-44
2021/04/25 02:03:24;;;;;;;14.73;6.80;;;;;;;1.09;73.35;99686.97;3483255;28;20049;-50
2021/04/25 02:05:07;;;;;;;17.02;7.80;;;;;;;1.09;73.58;99678.41;3481141;28;20053;-49
2021/04/25 02:06:49;;;;;;;20.27;7.90;;;;;;;1.08;73.58;99682.66;3484291;28;20056;-49
2021/04/25 02:08:30;;;;;;;17.33;7.65;;;;;;;1.08;73.56;99684.34;3479619;28;20044;-49
2021/04/25 02:10:13;;;;;;;16.10;7.18;;;;;;;1.09;73.64;99680.97;3484145;28;20061;-51
2021/04/25 02:11:54;;;;;;;16.30;7.80;;;;;;;1.11;73.52;99687.06;3473678;28;20050;-48
2021/04/25 02:13:35;;;;;;;16.05;7.18;;;;;;;1.11;73.55;99676.84;3471475;28;20053;-50
2021/04/25 02:15:17;;;;;;;13.40;6.88;;;;;;;1.11;73.35;99682.81;3482970;28;20507;-43
2021/04/25 02:16:59;;;;;;;16.27;7.45;;;;;;;1.14;73.51;99677.88;3480937;28;20041;-44
2021/04/25 02:18:40;;;;;;;14.50;6.72;;;;;;;1.16;73.37;99670.28;3484377;28;20505;-44
2021/04/25 02:20:23;;;;;;;14.32;7.07;;;;;;;1.18;73.01;99676.34;3480843;28;20049;-44
2021/04/25 02:22:05;;;;;;;15.80;6.60;;;;;;;1.21;73.21;99679.03;3483835;28;20493;-43
2021/04/25 02:23:47;;;;;;;13.25;6.28;;;;;;;1.24;73.21;99683.44;3481243;28;20056;-44
2021/04/25 02:25:29;;;;;;;9.43;4.70;;;;;;;1.28;72.75;99690.47;3482214;28;20534;-44
2021/04/25 02:27:10;;;;;;;14.52;6.80;;;;;;;1.32;72.80;99684.72;3481804;28;20115;-43
2021/04/25 02:28:52;;;;;;;11.63;6.45;;;;;;;1.34;72.92;99683.13;3480814;28;20037;-43
2021/04/25 02:30:36;;;;;;;12.30;6.13;;;;;;;1.37;72.76;99688.38;3484308;28;20052;-43
2021/04/25 02:32:17;;;;;;;10.80;5.78;;;;;;;1.40;72.73;99682.53;3480880;28;20087;-44
2021/04/25 02:33:59;;;;;;;10.77;5.07;;;;;;;1.43;72.45;99680.16;3484008;28;20063;-44
2021/04/25 02:35:41;;;;;;;13.00;4.97;;;;;;;1.45;72.19;99676.84;3481731;28;20133;-44
2021/04/25 02:37:23;;;;;;;11.75;5.80;;;;;;;1.50;72.03;99675.41;3481026;28;20049;-43
2021/04/25 02:39:04;;;;;;;11.15;5.53;;;;;;;1.56;72.13;99674.84;3484303;28;20076;-43
2021/04/25 02:40:46;;;;;;;9.90;5.35;;;;;;;1.61;71.57;99667.41;3479611;28;20091;-43
2021/04/25 02:42:27;;;;;;;13.20;6.00;;;;;;;1.67;71.75;99671.16;3483950;28;20048;-44
2021/04/25 02:44:09;;;;;;;11.43;4.85;;;;;;;1.70;71.32;99668.72;3480234;28;20450;-44
2021/04/25 02:45:54;;;;;;;13.02;5.82;;;;;;;1.76;71.08;99665.59;3481501;28;20059;-44
2021/04/25 02:47:35;;;;;;;10.23;5.20;;;;;;;1.84;70.61;99677.06;3482016;28;20076;-44
2021/04/25 02:49:18;;;;;;;10.55;5.28;;;;;;;1.88;70.56;99672.97;3477944;28;20045;-43
2021/04/25 02:51:00;;;;;;;12.90;5.53;;;;;;;1.93;70.03;99668.94;3483927;28;20126;-43
2021/04/25 02:52:42;;;;;;;11.98;5.28;;;;;;;1.98;70.25;99667.50;3479415;28;20044;-51
2021/04/25 02:54:23;;;;;;;10.60;5.22;;;;;;;2.00;69.84;99670.13;3483690;28;20085;-50
2021/04/25 02:56:04;;;;;;;7.90;4.65;;;;;;;2.03;69.95;99665.16;3480714;28;20052;-50
2021/04/25 02:57:46;;;;;;;9.52;5.13;;;;;;;2.05;70.00;99668.66;3481514;28;20547;-50
2021/04/25 02:59:27;;;;;;;11.88;5.30;;;;;;;2.07;69.77;99661.94;3481808;28;20045;-51
2021/04/25 03:01:09;;;;;;;9.40;5.20;;;;;;;2.11;70.08;99666.38;3478327;28;20081;-49
2021/04/25 03:02:50;;;;;;;8.68;4.53;;;;;;;2.14;69.22;99664.84;3484248;28;20548;-43
2021/04/25 03:04:32;;;;;;;9.50;4.45;;;;;;;2.18;69.51;99659.88;3479246;28;20052;-43
2021/04/25 03:06:14;;;;;;;9.32;4.88;;;;;;;2.22;68.94;99655.00;3483141;28;20139;-44
2021/04/25 03:07:56;;;;;;;11.45;5.57;;;;;;;2.26;69.21;99663.69;3480102;28;20053;-44
2021/04/25 03:09:37;;;;;;;12.02;5.25;;;;;;;2.31;68.92;99662.22;3480625;28;20391;-44
2021/04/25 03:11:19;;;;;;;8.20;4.88;;;;;;;2.33;68.75;99661.47;3482144;28;20056;-44
2021/04/25 03:13:00;;;;;;;8.68;5.00;;;;;;;2.37;68.39;99659.06;3478946;28;20049;-44
2021/04/25 03:14:41;;;;;;;9.57;5.10;;;;;;;2.39;68.40;99658.31;3483963;28;20052;-44
2021/04/25 03:16:23;;;;;;;7.53;4.05;;;;;;;2.41;68.63;99663.50;3480554;28;20079;-44
2021/04/25 03:18:05;;;;;;;11.15;4.57;;;;;;;2.44;68.63;99658.53;3483455;28;20468;-54
2021/04/25 03:19:46;;;;;;;8.25;4.40;;;;;;;2.47;68.06;99654.44;3480846;28;20056;-50
2021/04/25 03:21:29;;;;;;;7.50;4.68;;;;;;;2.51;68.40;99650.31;3480443;28;20081;-44
2021/04/25 03:23:12;;;;;;;7.30;3.80;;;;;;;2.52;68.17;99654.66;3482235;28;20045;-50
2021/04/25 03:24:53;;;;;;;9.20;4.10;;;;;;;2.52;68.40;99654.66;3479116;28;20048;-49
2021/04/25 03:26:34;;;;;;;8.27;4.05;;;;;;;2.56;68.50;99655.66;3483715;28;20135;-50
2021/04/25 03:28:16;;;;;;;10.00;5.10;;;;;;;2.58;68.38;99662.59;3480153;28;20586;-49
2021/04/25 03:29:57;;;;;;;10.45;4.45;;;;;;;2.59;68.55;99660.91;3483178;28;20053;-51
2021/04/25 03:31:40;;;;;;;10.40;5.40;;;;;;;2.59;68.42;99656.69;3480709;28;20053;-50
2021/04/25 03:33:22;;;;;;;10.18;4.55;;;;;;;2.62;68.31;99664.47;3480442;28;20045;-49
2021/04/25 03:35:06;;;;;;;9.77;4.55;;;;;;;2.65;68.32;99666.31;3482304;28;20099;-49
2021/04/25 03:36:47;;;;;;;9.25;4.97;;;;;;;2.67;68.25;99664.69;3479068;28;20095;-44
2021/04/25 03:38:29;;;;;;;9.68;4.35;;;;;;;2.71;68.42;99658.88;3483520;28;20049;-44
2021/04/25 03:40:14;;;;;;;10.77;5.15;;;;;;;2.75;68.30;99659.91;3480098;28;20135;-44
2021/04/25 03:41:55;;;;;;;7.90;4.38;;;;;;;2.79;68.25;99661.81;3483005;28;20052;-43
2021/04/25 03:43:36;;;;;;;8.73;5.05;;;;;;;2.81;68.28;99657.63;3480121;28;20053;-44
2021/04/25 03:45:19;;;;;;;11.27;5.15;;;;;;;2.83;68.20;99656.88;3480386;28;20056;-51
2021/04/25 03:47:00;;;;;;;9.65;4.85;;;;;;;2.86;68.43;99651.91;3483178;28;20087;-50
2021/04/25 03:48:41;;;;;;;11.30;5.97;;;;;;;2.88;67.87;99657.09;3478780;28;20063;-52
2021/04/25 03:50:25;;;;;;;12.10;5.18;;;;;;;2.88;67.88;99657.97;3483231;28;20494;-51
2021/04/25 03:52:07;;;;;;;11.10;5.10;;;;;;;2.90;68.07;99658.03;3478379;28;20558;-49
2021/04/25 03:53:50;;;;;;;11.77;5.43;;;;;;;2.92;67.35;99664.09;3481793;28;20535;-52
2021/04/25 03:55:32;;;;;;;10.43;5.10;;;;;;;2.95;67.90;99661.66;3481026;28;20045;-51
2021/04/25 03:57:13;;;;;;;13.57;5.45;;;;;;;2.99;67.41;99663.56;3479730;28;20083;-50
2021/04/25 03:58:55;;;;;;;11.63;5.60;;;;;;;3.04;67.12;99653.50;3483030;28;20053;-49
2021/04/25 04:00:37;;;;;;;11.82;5.43;;;;;;;3.05;67.32;99656.16;3479815;28;20473;-50
2021/04/25 04:02:18;;;;;;;9.40;4.63;;;;;;;3.06;67.08;99646.75;3483196;28;20136;-51
2021/04/25 04:03:59;;;;;;;10.18;4.70;;;;;;;3.09;66.87;99645.19;3479866;28;20045;-45
2021/04/25 04:05:41;;;;;;;12.75;6.25;;;;;;;3.16;67.17;99645.47;3481710;28;20049;-44
2021/04/25 04:07:22;;;;;;;10.93;6.03;;;;;;;3.20;66.76;99653.34;3480072;28;20496;-44
2021/04/25 04:09:05;;;;;;;13.98;5.40;;;;;;;3.26;66.59;99655.31;3480268;28;20049;-44
2021/04/25 04:10:46;;;;;;;9.60;4.57;;;;;;;3.32;66.16;99647.00;3482288;28;20052;-44
2021/04/25 04:12:28;;;;;;;13.02;5.00;;;;;;;3.40;66.07;99648.19;3479726;28;20102;-44
2021/04/25 04:14:09;;;;;;;8.65;4.95;;;;;;;3.45;65.49;99641.56;3481798;28;20060;-50
2021/04/25 04:15:50;;;;;;;10.80;5.40;;;;;;;3.51;66.01;99646.97;3478461;28;20045;-53
2021/04/25 04:17:32;;;;;;;9.63;5.05;;;;;;;3.57;65.98;99644.63;3482552;28;20418;-50
2021/04/25 04:19:13;;;;;;;11.85;5.65;;;;;;;3.67;66.86;99647.59;3480597;28;20520;-49
2021/04/25 04:20:54;;;;;;;9.57;5.15;;;;;;;3.73;65.98;99648.69;3478802;28;20049;-50
2021/04/25 04:22:36;;;;;;;8.95;4.45;;;;;;;3.80;65.92;99650.69;3481644;28;20537;-44
2021/04/25 04:24:18;;;;;;;11.13;4.80;;;;;;;3.85;64.71;99646.63;3478340;28;20502;-44
2021/04/25 04:26:00;;;;;;;9.40;5.07;;;;;;;3.93;64.62;99646.06;3482799;28;20506;-44
2021/04/25 04:27:41;;;;;;;9.32;5.47;;;;;;;3.98;64.33;99652.25;3478571;28;20060;-44
2021/04/25 04:29:23;;;;;;;7.63;3.80;;;;;;;4.03;64.24;99641.34;3482696;28;20049;-45
2021/04/25 04:31:06;;;;;;;10.93;4.93;;;;;;;4.11;63.68;99649.38;3479795;28;20092;-44
2021/04/25 04:32:47;;;;;;;10.10;5.03;;;;;;;4.14;63.20;99644.34;3480108;28;20454;-50
2021/04/25 04:34:28;;;;;;;9.25;5.15;;;;;;;4.16;63.12;99640.16;3481786;28;20049;-49
2021/04/25 04:36:10;;;;;;;9.85;5.63;;;;;;;4.21;62.79;99640.31;3478312;28;20095;-50
2021/04/25 04:37:51;;;;;;;8.75;5.35;;;;;;;4.24;62.73;99643.00;3482996;28;20059;-50
2021/04/25 04:39:33;;;;;;;8.10;4.82;;;;;;;4.31;62.60;99649.25;3477793;28;20084;-50
2021/04/25 04:41:14;;;;;;;7.72;4.35;;;;;;;4.34;62.73;99646.81;3482601;28;20061;-49
2021/04/25 04:42:56;;;;;;;11.73;5.47;;;;;;;4.36;62.39;99653.75;3480145;28;20080;-52
2021/04/25 04:44:37;;;;;;;10.88;5.43;;;;;;;4.41;62.62;99643.66;3479481;28;20045;-44
2021/04/25 04:46:18;;;;;;;11.30;5.40;;;;;;;4.46;62.11;99648.94;3481596;28;20391;-44
2021/04/25 04:48:00;;;;;;;7.22;3.97;;;;;;;4.51;62.12;99644.88;3479583;28;20040;-45
2021/04/25 04:49:41;;;;;;;10.57;5.63;;;;;;;4.50;62.19;99654.28;3482946;28;20056;-44
2021/04/25 04:51:22;;;;;;;9.43;5.22;;;;;;;4.52;61.96;99654.34;3479307;28;20064;-50
2021/04/25 04:53:04;;;;;;;10.88;4.55;;;;;;;4.57;62.06;99651.13;3482419;28;20049;-49
2021/04/25 04:54:46;;;;;;;10.75;6.05;;;;;;;4.63;62.29;99652.16;3478731;28;20055;-52
2021/04/25 04:56:27;;;;;;;11.15;5.72;;;;;;;4.70;62.52;99654.13;3480927;28;20041;-51
2021/04/25 04:58:09;;;;;;;10.73;5.78;;;;;;;4.78;62.20;99650.16;3481441;28;20057;-50
2021/04/25 04:59:50;;;;;;;11.25;5.85;;;;;;;4.84;61.47;99655.50;3479166;28;20080;-51
2021/04/25 05:01:32;;;;;;;9.43;5.07;;;;;;;4.91;61.40;99647.19;3482531;28;20422;-50
2021/04/25 05:03:15;;;;;;;9.13;5.18;;;;;;;4.97;61.99;99652.56;3479646;28;20033;-44
2021/04/25 05:04:56;;;;;;;9.57;5.35;;;;;;;5.04;61.93;99652.78;3481780;28;20191;-44
2021/04/25 05:06:37;;;;;;;8.73;4.68;;;;;;;5.12;61.47;99648.78;3478793;28;20060;-44
2021/04/25 05:08:19;;;;;;;13.77;5.82;;;;;;;5.18;61.79;99649.00;3478862;28;20052;-44
2021/04/25 05:10:01;;;;;;;8.55;4.45;;;;;;;5.28;60.93;99645.91;3481097;28;20052;-44
2021/04/25 05:11:43;;;;;;;9.38;5.05;;;;;;;5.35;60.68;99645.31;3478401;28;20331;-44
2021/04/25 05:13:24;;;;;;;10.52;5.20;;;;;;;5.44;61.18;99647.31;3481024;28;20460;-45
2021/04/25 05:15:07;;;;;;;9.75;5.35;;;;;;;5.53;60.62;99639.91;3478928;28;20519;-45
2021/04/25 05:16:48;;;;;;;9.00;4.93;;;;;;;5.66;61.21;99637.72;3481738;28;20413;-45
2021/04/25 05:18:30;;;;;;;8.75;5.07;;;;;;;5.78;61.15;99634.69;3479897;28;20102;-52
2021/04/25 05:20:13;;;;;;;17.65;6.25;;;;;;;5.82;60.22;99634.84;3479316;28;20052;-51
2021/04/25 05:21:54;;;;;;;10.23;5.30;;;;;;;5.88;59.87;99639.31;3469547;28;20510;-49
2021/04/25 05:23:36;;;;;;;9.40;5.18;;;;;;;5.86;60.13;99654.69;3472960;28;20049;-50
2021/04/25 05:25:18;;;;;;;10.50;5.88;;;;;;;5.88;60.56;99642.75;3482567;28;20556;-44
2021/04/25 05:26:59;;;;;;;7.95;4.88;;;;;;;5.91;59.62;99640.28;3478783;28;20417;-45
2021/04/25 05:28:41;;;;;;;10.68;5.22;;;;;;;5.99;60.23;99648.25;3482043;28;20052;-45
2021/04/25 05:30:22;;;;;;;9.52;4.88;;;;;;;6.05;59.69;99661.31;3479520;28;20053;-44
2021/04/25 05:32:05;;;;;;;14.27;5.78;;;;;;;6.09;59.88;99658.00;3478530;28;20060;-45
2021/04/25 05:33:46;;;;;;;11.90;5.50;;;;;;;6.12;59.64;99660.69;3480713;28;20053;-44
2021/04/25 05:35:28;;;;;;;9.88;5.32;;;;;;;6.16;59.44;99660.78;3478838;28;20064;-46
2021/04/25 05:37:10;;;;;;;11.75;5.70;;;;;;;6.21;59.76;99654.09;3482349;28;20415;-44
2021/04/25 05:38:51;;;;;;;10.82;5.68;;;;;;;6.29;59.25;99662.91;3479008;28;20045;-44
2021/04/25 05:40:34;;;;;;;10.10;5.30;;;;;;;6.35;59.01;99664.78;3482100;28;20239;-50
2021/04/25 05:42:15;;;;;;;8.65;5.38;;;;;;;6.27;59.25;99660.28;3479687;28;20111;-44
2021/04/25 05:43:56;;;;;;;9.18;4.95;;;;;;;6.22;59.58;99660.97;3478705;28;20049;-46
2021/04/25 05:45:38;;;;;;;9.15;4.47;;;;;;;6.28;60.12;99674.03;3480693;28;20506;-45
2021/04/25 05:47:19;;;;;;;9.43;5.47;;;;;;;6.32;59.87;99669.00;3478748;28;20060;-45
2021/04/25 05:49:01;;;;;;;11.18;6.78;;;;;;;6.34;59.89;99656.19;3482187;28;20064;-45
2021/04/25 05:50:43;;;;;;;10.90;5.70;;;;;;;6.37;60.02;99670.88;3480323;28;20052;-45
2021/04/25 05:52:25;;;;;;;11.75;6.43;;;;;;;6.44;59.79;99653.06;3481806;28;20049;-51
2021/04/25 05:54:10;;;;;;;10.38;6.50;;;;;;;6.55;60.18;99655.09;3479167;28;20434;-50
2021/04/25 05:55:52;;;;;;;14.63;6.55;;;;;;;6.68;59.51;99663.22;3477710;28;20091;-50
2021/04/25 05:57:34;;;;;;;17.88;6.43;;;;;;;6.82;59.32;99668.78;3481299;28;20049;-45
2021/04/25 05:59:15;;;;;;;10.80;5.82;;;;;;;6.97;58.76;99659.78;3477259;28;20395;-45
2021/04/25 06:00:57;;;;;;;13.20;6.47;;;;;;;6.97;58.20;99658.06;3482219;28;20049;-44
2021/04/25 06:02:38;;;;;;;11.50;6.40;;;;;;;6.95;58.71;99648.47;3478845;28;20068;-53
2021/04/25 06:04:21;;;;;;;11.90;5.68;;;;;;;6.98;58.78;99652.06;3482279;28;20064;-47
2021/04/25 06:06:02;;;;;;;8.20;5.05;;;;;;;7.01;58.58;99657.28;3478948;28;20565;-44
2021/04/25 06:07:44;;;;;;;10.52;6.07;;;;;;;6.97;57.83;99659.78;3479263;28;20046;-51
2021/04/25 06:09:25;;;;;;;12.88;5.38;;;;;;;6.94;58.49;99657.06;3480870;28;20127;-51
2021/04/25 06:11:07;;;;;;;11.85;5.65;;;;;;;6.89;58.76;99652.66;3478830;28;20048;-49
2021/04/25 06:12:51;;;;;;;9.45;5.07;;;;;;;6.93;59.32;99652.72;3481894;28;20064;-50
2021/04/25 06:14:32;;;;;;;9.68;5.22;;;;;;;7.01;59.25;99661.59;3475700;28;20049;-49
2021/04/25 06:16:13;;;;;;;13.95;6.50;;;;;;;7.10;58.96;99650.66;3480182;28;20099;-53
2021/04/25 06:17:55;;;;;;;9.18;5.22;;;;;;;7.22;58.73;99659.59;3478029;28;20049;-50
2021/04/25 06:19:36;;;;;;;8.38;5.22;;;;;;;7.39;58.65;99654.03;3477646;28;20053;-50
2021/04/25 06:21:18;;;;;;;8.15;4.82;;;;;;;7.51;57.82;99659.50;3482572;28;20829;-45
2021/04/25 06:22:59;;;;;;;6.28;3.78;;;;;;;7.61;57.91;99651.13;3480872;28;20049;-50
2021/04/25 06:24:41;;;;;;;10.40;5.65;;;;;;;7.63;57.52;99659.78;3484360;28;20049;-50
2021/04/25 06:26:23;;;;;;;9.48;5.30;;;;;;;7.70;57.53;99652.22;3480763;28;20045;-51
2021/04/25 06:28:04;;;;;;;10.82;5.47;;;;;;;7.69;56.90;99660.78;3483885;28;20053;-49
2021/04/25 06:29:46;;;;;;;13.10;5.82;;;;;;;7.58;57.50;99656.25;3480137;28;20080;-50
2021/04/25 06:31:27;;;;;;;12.25;5.35;;;;;;;7.55;57.48;99663.03;3480868;28;20056;-53
2021/04/25 06:33:08;;;;;;;11.23;5.53;;;;;;;7.46;57.61;99653.34;3484055;28;20056;-50
2021/04/25 06:34:49;;;;;;;12.10;5.97;;;;;;;7.49;57.55;99655.97;3480972;28;20045;-49
2021/04/25 06:36:31;;;;;;;13.05;6.32;;;;;;;7.61;58.32;99642.53;3484139;28;20060;-53
2021/04/25 06:38:12;;;;;;;8.85;5.65;;;;;;;7.81;58.21;99645.59;3479720;28;20049;-49
2021/04/25 06:39:54;;;;;;;12.18;5.95;;;;;;;7.95;56.40;99643.34;3483754;28;20052;-50
2021/04/25 06:41:36;;;;;;;9.13;5.15;;;;;;;8.07;57.04;99638.47;3481159;28;20052;-45
2021/04/25 06:43:18;;;;;;;12.30;5.18;;;;;;;8.24;56.59;99635.41;3480887;28;20098;-46
2021/04/25 06:44:59;;;;;;;11.75;5.72;;;;;;;8.26;56.15;99633.72;3482591;28;20060;-45
2021/04/25 06:46:41;;;;;;;9.77;4.95;;;;;;;8.19;55.60;99640.47;3479242;28;20142;-51
2021/04/25 06:48:22;;;;;;;11.52;5.70;;;;;;;8.07;55.86;99638.47;3483810;28;20076;-52
2021/04/25 06:50:05;;;;;;;11.00;5.70;;;;;;;8.14;57.47;99636.91;3480678;28;20494;-44
2021/04/25 06:51:47;;;;;;;10.45;5.45;;;;;;;8.32;56.43;99633.84;3483515;28;20049;-44
2021/04/25 06:53:28;;;;;;;10.43;5.28;;;;;;;8.51;56.21;99638.56;3481382;28;20041;-49
2021/04/25 06:55:14;;;;;;;11.73;5.88;;;;;;;8.65;55.00;99638.88;3480287;28;20064;-49
2021/04/25 06:56:56;;;;;;;9.88;5.50;;;;;;;8.71;53.94;99635.53;3483378;28;20048;-48
2021/04/25 06:58:38;;;;;;;7.57;4.57;;;;;;;8.78;54.56;99640.00;3477691;28;20095;-48
2021/04/25 07:00:22;;;;;;;10.57;5.88;;;;;;;8.84;52.97;99637.53;3470427;28;20045;-49
2021/04/25 07:02:03;;;;;;;10.23;4.22;;;;;;;8.97;51.40;99646.41;3479139;28;20587;-44
2021/04/25 07:03:45;;;;;;;8.77;4.82;;;;;;;9.04;52.13;99645.69;3483133;28;20049;-46
2021/04/25 07:05:27;;;;;;;7.97;4.40;;;;;;;8.97;51.35;99641.22;3481542;28;20053;-46
2021/04/25 07:07:09;;;;;;;10.73;4.63;;;;;;;8.94;52.08;99642.06;3480646;28;20071;-52
2021/04/25 07:08:55;;;;;;;8.10;4.15;;;;;;;8.97;52.51;99649.00;3471115;28;20056;-46
2021/04/25 07:10:36;;;;;;;10.45;5.07;;;;;;;9.05;52.67;99649.16;3475895;28;20091;-45
2021/04/25 07:12:18;;;;;;;7.28;4.63;;;;;;;9.11;51.34;99652.72;3483764;28;20045;-47
2021/04/25 07:14:00;;;;;;;8.35;4.47;;;;;;;9.25;51.29;99658.16;3479091;28;20509;-46
2021/04/25 07:15:41;;;;;;;10.88;5.15;;;;;;;9.39;51.17;99649.78;3482509;28;20057;-46
2021/04/25 07:17:22;;;;;;;8.30;4.43;;;;;;;9.45;50.51;99653.41;3481775;28;20560;-45
2021/04/25 07:19:04;;;;;;;9.18;4.60;;;;;;;9.41;49.86;99655.88;3480134;28;20052;-46
2021/04/25 07:20:47;;;;;;;8.80;4.35;;;;;;;9.48;50.02;99648.25;3469762;28;20076;-45
2021/04/25 07:22:29;;;;;;;7.07;4.15;;;;;;;9.59;50.04;99642.41;3475811;28;20056;-46
2021/04/25 07:24:10;;;;;;;7.30;4.53;;;;;;;9.62;50.02;99652.81;3483546;28;20060;-46
2021/04/25 07:25:52;;;;;;;8.38;4.13;;;;;;;9.72;50.80;99655.59;3478651;28;20510;-45
2021/04/25 07:27:34;;;;;;;8.60;5.25;;;;;;;9.87;50.85;99654.09;3482242;28;20049;-45
2021/04/25 07:29:18;;;;;;;9.65;4.85;;;;;;;10.05;48.88;99653.50;3482015;28;20083;-50
2021/04/25 07:31:03;;;;;;;7.13;4.35;;;;;;;10.14;48.92;99639.81;3479064;28;20049;-49
2021/04/25 07:32:45;;;;;;;9.02;4.50;;;;;;;10.14;48.88;99651.06;3469189;28;20476;-50
2021/04/25 07:34:26;;;;;;;11.82;4.40;;;;;;;10.04;48.50;99642.28;3478496;28;20060;-46
2021/04/25 07:36:09;;;;;;;8.23;3.78;;;;;;;10.08;49.45;99640.59;3479956;28;20465;-46
2021/04/25 07:37:50;;;;;;;7.32;3.97;;;;;;;10.09;48.82;99645.81;3481903;28;20063;-46
2021/04/25 07:39:32;;;;;;;8.38;4.30;;;;;;;9.93;47.96;99649.03;3478641;28;20439;-45
2021/04/25 07:41:14;;;;;;;7.45;4.07;;;;;;;9.69;47.86;99641.72;3483342;28;20049;-46
2021/04/25 07:42:56;;;;;;;7.97;4.38;;;;;;;9.56;48.87;99658.78;3478663;28;20049;-45
2021/04/25 07:44:41;;;;;;;13.25;4.45;;;;;;;9.55;49.63;99649.25;3482249;28;20063;-46
2021/04/25 07:46:22;;;;;;;8.20;4.22;;;;;;;9.55;49.90;99649.25;3480273;28;20102;-45
2021/04/25 07:48:05;;;;;;;6.85;3.78;;;;;;;9.64;49.25;99661.47;3479843;28;20083;-45
2021/04/25 07:49:46;;;;;;;7.38;4.05;;;;;;;9.60;49.01;99651.91;3481214;28;20053;-46
2021/04/25 07:51:27;;;;;;;9.35;4.32;;;;;;;9.57;48.95;99651.88;3480048;28;20049;-46
2021/04/25 07:53:09;;;;;;;7.72;4.00;;;;;;;9.67;49.07;99644.28;3483253;28;20099;-45
2021/04/25 07:54:50;;;;;;;7.28;4.22;;;;;;;9.68;48.51;99650.31;3478917;28;20045;-45
2021/04/25 07:56:32;;;;;;;7.38;3.95;;;;;;;9.66;48.81;99657.19;3481905;28;20486;-46
2021/04/25 07:58:14;;;;;;;6.85;4.35;;;;;;;9.51;48.61;99648.31;3480210;28;20068;-49
2021/04/25 07:59:55;;;;;;;6.88;4.50;;;;;;;9.49;49.70;99649.16;3480252;28;20072;-45
2021/04/25 08:01:36;;;;;;;8.00;3.70;;;;;;;9.45;49.17;99647.34;3482220;28;20055;-47